createdAt,value
2018-09-29T07:13:09.728Z,7.4
2018-09-29T07:15:07.922Z,7.4
2018-09-29T07:15:38.544Z,7.4
2018-09-29T07:16:09.073Z,7.4
2018-09-29T07:16:39.498Z,7.4
2018-09-29T07:58:28.778Z,8
2018-09-29T08:16:12.642Z,8.4
2018-09-29T08:19:11.435Z,8.4
2018-09-29T08:29:01.099Z,8.7
2018-09-29T08:31:58.583Z,8.7
2018-09-29T08:33:56.892Z,8.8
2018-09-29T08:35:54.873Z,8.8
2018-09-29T08:37:53.821Z,8.8
2018-09-29T08:39:51.560Z,8.9
2018-09-29T08:46:44.981Z,9.1
2018-09-29T08:47:44.246Z,9.1
2018-09-29T08:51:41.211Z,9.1
2018-09-29T08:52:11.940Z,9.1
2018-09-29T08:52:42.571Z,9.1
2018-09-29T08:53:13.010Z,9.1
2018-09-29T08:54:38.549Z,9.2
2018-09-29T08:55:09.295Z,9.2
2018-09-29T08:56:36.957Z,9.2
2018-09-29T08:57:35.889Z,9.2
2018-09-29T08:58:34.612Z,9.2
2018-09-29T09:00:33.204Z,9.2
2018-09-29T09:01:32.412Z,9.2
2018-09-29T09:02:31.333Z,9.3
2018-09-29T09:03:30.537Z,9.3
2018-09-29T09:04:01.469Z,9.3
2018-09-29T09:05:29.016Z,9.3
2018-09-29T09:05:59.428Z,9.3
2018-09-29T09:07:26.719Z,9.4
2018-09-29T09:08:26.539Z,9.5
2018-09-29T09:09:26.081Z,9.5
2018-09-29T09:10:24.286Z,9.5
2018-09-29T09:12:22.285Z,9.6
2018-09-29T09:13:21.990Z,9.7
2018-09-29T09:14:21.202Z,9.7
2018-09-29T09:18:17.680Z,9.9
2018-09-29T09:19:16.381Z,10
2018-09-29T09:20:15.694Z,10
2018-09-29T09:23:14.183Z,10.1
2018-09-29T09:23:44.292Z,10.1
2018-09-29T09:24:14.992Z,10.1
2018-09-29T09:24:44.777Z,10.1
2018-09-29T09:25:15.402Z,10.1
2018-09-29T09:26:10.810Z,10.1
2018-09-29T09:27:09.734Z,10.1
2018-09-29T09:28:09.215Z,10.2
2018-09-29T09:29:08.021Z,10.2
2018-09-29T09:30:07.406Z,10.2
2018-09-29T09:31:06.223Z,10.2
2018-09-29T09:32:05.538Z,10.3
2018-09-29T09:33:04.642Z,10.4
2018-09-29T09:33:35.324Z,10.4
2018-09-29T09:34:05.851Z,10.4
2018-09-29T09:34:36.488Z,10.4
2018-09-29T10:09:33.574Z,11.1
2018-09-29T10:11:31.772Z,11.1
2018-09-29T10:14:29.351Z,11
2018-09-29T10:15:28.669Z,11
2018-09-29T10:16:27.975Z,11
2018-09-29T10:20:24.444Z,11
2018-09-29T10:24:20.804Z,11
2018-09-29T10:25:20.224Z,10.9
2018-09-29T10:49:00.399Z,11.8
2018-09-29T10:49:59.594Z,11.9
2018-09-29T10:50:58.904Z,12
2018-09-29T10:52:57.724Z,12.3
2018-09-29T10:53:27.352Z,12.3
2018-09-29T10:53:57.656Z,12.3
2018-09-29T10:54:28.688Z,12.3
2018-09-29T10:54:59.311Z,12.4
2018-09-29T10:57:52.770Z,12.6
2018-09-29T10:58:52.195Z,12.6
2018-09-29T10:59:51.512Z,12.6
2018-09-29T11:00:22.031Z,12.6
2018-09-29T11:02:48.928Z,12.8
2018-09-29T11:03:48.232Z,12.8
2018-09-29T11:04:47.652Z,12.9
2018-09-29T11:05:46.587Z,12.9
2018-09-29T11:06:45.903Z,12.8
2018-09-29T11:07:44.605Z,12.9
2018-09-29T11:08:44.024Z,12.9
2018-09-29T11:11:41.494Z,12.9
2018-09-29T11:12:12.120Z,12.9
2018-09-29T11:12:42.645Z,12.9
2018-09-29T11:13:13.273Z,12.9
2018-09-29T11:14:39.269Z,13
2018-09-29T11:15:38.588Z,13
2018-09-29T11:16:37.796Z,13
2018-09-29T11:19:35.431Z,12.9
2018-09-29T11:20:34.742Z,13
2018-09-29T11:21:05.283Z,13
2018-09-29T11:21:36.017Z,13
2018-09-29T11:22:06.036Z,13
2018-09-29T11:22:36.795Z,13
2018-09-29T11:23:06.933Z,13
2018-09-29T11:23:37.564Z,13
2018-09-29T11:24:08.198Z,13
2018-09-29T11:24:38.377Z,13
2018-09-29T11:25:09.102Z,13
2018-09-29T11:35:22.525Z,12.7
2018-09-29T11:42:17.266Z,12.9
2018-09-29T11:45:14.741Z,12.9
2018-09-29T11:52:09.374Z,13
2018-09-29T11:58:04.614Z,13
2018-09-29T12:04:58.850Z,13.2
2018-09-29T12:17:48.893Z,12.8
2018-09-29T12:35:34.881Z,13.1
2018-09-29T12:37:33.491Z,13.2
2018-09-29T12:40:30.703Z,13.3
2018-09-29T12:51:22.336Z,13.8
2018-09-29T12:53:20.539Z,13.8
2018-09-29T12:54:19.850Z,13.9
2018-09-29T12:55:19.068Z,13.8
2018-09-29T13:44:41.176Z,17.7
2018-09-29T13:45:11.797Z,17.7
2018-09-29T13:45:42.022Z,17.6
2018-09-29T13:49:37.724Z,17.3
2018-09-29T14:20:16.233Z,17.9
2018-09-29T15:04:45.663Z,19.2
2018-09-29T15:05:44.868Z,19.3
2018-09-29T15:07:43.753Z,18.8
2018-09-29T15:09:42.353Z,18
2018-09-29T15:11:40.958Z,17.2
2018-09-29T15:12:40.262Z,17.1
2018-09-29T15:15:38.135Z,16.9
2018-09-29T15:16:37.450Z,16.7
2018-09-29T15:17:36.761Z,16.6
2018-09-29T15:19:35.250Z,16.4
2018-09-29T15:21:33.841Z,16.1
2018-09-29T15:22:04.371Z,16.1
2018-09-29T15:22:35.106Z,15.9
2018-09-29T15:23:05.639Z,15.9
2018-09-29T15:23:36.314Z,15.8
2018-09-29T15:24:06.734Z,15.8
2018-09-29T15:26:30.600Z,15.7
2018-09-29T15:43:18.482Z,15
2018-09-29T15:44:17.819Z,14.8
2018-09-29T15:45:17.242Z,14.7
2018-09-29T15:45:47.366Z,14.7
2018-09-29T15:51:12.193Z,14.2
2018-09-29T15:52:12.018Z,14.3
2018-09-29T15:53:11.442Z,14.2
2018-09-29T15:54:10.260Z,14.2
2018-09-29T15:55:10.070Z,14.2
2018-09-29T15:56:08.946Z,14.2
2018-09-29T15:57:08.267Z,14.1
2018-09-29T15:58:07.470Z,14.1
2018-09-29T15:59:06.787Z,14
2018-09-29T16:00:06.101Z,14
2018-09-29T16:01:05.413Z,13.9
2018-09-29T16:05:02.392Z,13.7
2018-09-29T16:05:33.028Z,13.7
2018-09-29T17:22:01.528Z,10.2
2018-09-29T17:22:31.540Z,10.2
2018-09-29T17:23:01.951Z,10.1
2018-09-29T17:23:32.632Z,10.1
2018-09-29T17:24:59.122Z,10.1
2018-09-29T17:25:29.525Z,10.1
2018-09-29T17:26:57.635Z,10
2018-09-29T17:27:56.347Z,9.9
2018-09-29T17:28:55.553Z,9.9
2018-09-29T17:44:42.527Z,9.3
2018-09-29T17:45:42.221Z,9.2
2018-09-29T17:47:39.996Z,9.2
2018-09-29T17:48:39.193Z,9.1
2018-09-29T17:49:38.115Z,9.1
2018-09-29T17:50:37.426Z,9.1
2018-09-29T17:51:36.630Z,9
2018-09-29T17:52:36.207Z,9
2018-09-29T17:53:06.449Z,9
2018-09-29T17:53:36.569Z,8.9
2018-09-29T17:54:07.210Z,8.9
2018-09-29T17:54:37.833Z,8.9
2018-09-29T17:55:08.568Z,8.9
2018-09-29T17:55:38.473Z,8.9
2018-09-29T17:56:09.211Z,8.9
2018-09-29T17:57:31.677Z,8.8
2018-09-29T17:59:29.878Z,8.8
2018-09-29T18:00:29.083Z,8.8
2018-09-29T18:01:28.004Z,8.7
2018-09-29T18:02:27.435Z,8.7
2018-09-29T18:03:26.152Z,8.6
2018-09-29T18:03:57.017Z,8.6
2018-09-29T18:05:24.411Z,8.6
2018-09-29T18:05:54.937Z,8.6
2018-09-29T18:07:22.729Z,8.5
2018-09-29T18:08:22.324Z,8.5
2018-09-29T18:10:20.798Z,8.5
2018-09-29T18:14:17.384Z,8.4
2018-09-29T18:16:15.586Z,8.4
2018-09-29T18:17:14.394Z,8.3
2018-09-29T18:18:13.712Z,8.3
2018-09-29T18:19:12.704Z,8.3
2018-09-29T18:21:10.935Z,8.2
2018-09-29T18:22:09.926Z,8.2
2018-09-29T18:23:09.126Z,8.1
2018-09-29T18:24:08.539Z,8.1
2018-09-29T18:25:07.530Z,8.1
2018-09-29T18:27:05.729Z,8
2018-09-29T18:28:05.730Z,8
2018-09-29T18:29:04.215Z,8
2018-09-29T18:30:03.436Z,8
2018-09-29T18:32:01.536Z,7.9
2018-09-29T18:33:00.537Z,7.9
2018-09-29T18:33:59.847Z,7.9
2018-09-29T18:34:59.172Z,7.9
2018-09-29T18:35:29.694Z,7.9
2018-09-29T18:37:56.359Z,7.8
2018-09-29T18:38:55.487Z,7.8
2018-09-29T18:40:53.803Z,7.7
2018-09-29T18:41:52.903Z,7.7
2018-09-29T18:42:52.000Z,7.7
2018-09-29T18:44:50.795Z,7.6
2018-09-29T18:45:49.505Z,7.6
2018-09-29T18:46:20.024Z,7.6
2018-09-29T18:46:50.760Z,7.6
2018-09-29T18:47:47.973Z,7.6
2018-09-29T18:48:47.472Z,7.6
2018-09-29T18:49:46.184Z,7.5
2018-09-29T18:50:45.396Z,7.5
2018-09-29T18:51:15.911Z,7.5
2018-09-29T18:51:46.913Z,7.5
2018-09-29T18:52:42.961Z,7.5
2018-09-29T18:53:42.775Z,7.5
2018-09-29T18:54:41.601Z,7.5
2018-09-29T18:55:40.917Z,7.4
2018-09-29T18:56:40.119Z,7.4
2018-09-29T18:57:39.057Z,7.4
2018-09-29T18:58:38.372Z,7.4
2018-09-29T18:59:37.181Z,7.4
2018-09-29T19:00:36.493Z,7.4
2018-09-29T19:01:07.033Z,7.4
2018-09-29T19:02:34.318Z,7.4
2018-09-29T19:03:33.519Z,7.3
2018-09-29T19:04:32.979Z,7.3
2018-09-29T19:05:32.303Z,7.3
2018-09-29T19:06:31.026Z,7.3
2018-09-29T19:07:30.234Z,7.3
2018-09-29T19:08:29.441Z,7.3
2018-09-29T19:09:28.538Z,7.2
2018-09-29T19:10:27.855Z,7.2
2018-09-29T19:11:26.566Z,7.2
2018-09-29T19:11:57.626Z,7.2
2018-09-29T19:12:27.651Z,7.2
2018-09-29T19:13:24.964Z,7.2
2018-09-29T19:14:24.178Z,7.1
2018-09-29T19:15:23.490Z,7.1
2018-09-29T19:16:22.203Z,7.1
2018-09-29T19:17:21.521Z,7.1
2018-09-29T19:18:20.942Z,7.1
2018-09-29T19:19:19.745Z,7.1
2018-09-29T19:20:19.064Z,7.1
2018-09-29T19:21:17.874Z,7.1
2018-09-29T19:22:17.085Z,7.1
2018-09-29T19:23:16.283Z,7.1
2018-09-29T19:24:15.598Z,7.1
2018-09-29T19:25:14.303Z,7.1
2018-09-29T19:27:12.582Z,7
2018-09-29T19:28:11.800Z,7
2018-09-29T19:29:11.001Z,7
2018-09-29T19:30:10.432Z,7
2018-09-29T19:30:40.652Z,7
2018-09-29T19:32:08.164Z,7
2018-09-29T19:33:07.470Z,6.9
2018-09-29T19:34:06.685Z,6.9
2018-09-29T19:35:05.503Z,6.9
2018-09-29T19:36:04.717Z,6.9
2018-09-29T19:37:03.919Z,6.9
2018-09-29T19:38:02.909Z,6.9
2018-09-29T19:39:02.114Z,6.8
2018-09-29T19:40:01.528Z,6.8
2018-09-29T19:40:31.665Z,6.8
2018-09-29T19:41:02.072Z,6.8
2018-09-29T19:41:32.490Z,6.8
2018-09-29T19:42:03.165Z,6.8
2018-09-29T19:42:33.807Z,6.8
2018-09-29T19:43:03.931Z,6.8
2018-09-29T19:43:34.552Z,6.8
2018-09-29T19:44:57.021Z,6.8
2018-09-29T19:45:55.843Z,6.8
2018-09-29T19:46:55.062Z,6.8
2018-09-29T19:47:54.482Z,6.7
2018-09-29T19:48:53.350Z,6.7
2018-09-29T19:49:52.441Z,6.7
2018-09-29T19:50:51.864Z,6.7
2018-09-29T19:51:50.840Z,6.7
2018-09-29T19:52:20.957Z,6.7
2018-09-29T19:52:51.502Z,6.7
2018-09-29T19:53:22.239Z,6.7
2018-09-29T19:53:52.256Z,6.7
2018-09-29T19:54:22.998Z,6.7
2018-09-29T19:55:46.856Z,6.7
2018-09-29T19:56:46.172Z,6.7
2018-09-29T19:57:45.492Z,6.7
2018-09-29T20:00:42.667Z,6.6
2018-09-29T20:01:41.989Z,6.6
2018-09-29T20:02:40.799Z,6.6
2018-09-29T20:03:40.187Z,6.6
2018-09-29T20:04:38.891Z,6.6
2018-09-29T20:05:38.104Z,6.6
2018-09-29T20:06:37.196Z,6.6
2018-09-29T20:07:36.623Z,6.6
2018-09-29T20:08:35.569Z,6.5
2018-09-29T20:09:34.485Z,6.5
2018-09-29T20:10:33.750Z,6.5
2018-09-29T20:11:04.262Z,6.5
2018-09-29T20:13:31.037Z,6.5
2018-09-29T20:14:30.354Z,6.5
2018-09-29T20:15:29.174Z,6.5
2018-09-29T20:16:28.881Z,6.5
2018-09-29T20:17:27.591Z,6.5
2018-09-29T20:18:26.287Z,6.5
2018-09-29T20:19:25.492Z,6.5
2018-09-29T20:20:24.815Z,6.5
2018-09-29T20:22:22.802Z,6.4
2018-09-29T20:22:53.221Z,6.4
2018-09-29T20:23:23.959Z,6.4
2018-09-29T20:23:53.980Z,6.4
2018-09-29T20:25:20.258Z,6.4
2018-09-29T20:26:19.359Z,6.4
2018-09-29T20:27:18.674Z,6.5
2018-09-29T20:28:17.052Z,6.5
2018-09-29T20:29:16.756Z,6.5
2018-09-29T20:30:15.474Z,6.4
2018-09-29T20:31:14.905Z,6.5
2018-09-29T20:32:14.003Z,6.4
2018-09-29T20:32:44.515Z,6.4
2018-09-29T20:33:15.147Z,6.4
2018-09-29T20:33:45.936Z,6.4
2018-09-29T20:35:11.417Z,6.4
2018-09-29T20:36:10.330Z,6.4
2018-09-29T20:37:09.947Z,6.4
2018-09-29T20:38:08.769Z,6.4
2018-09-29T20:39:07.586Z,6.4
2018-09-29T20:40:06.792Z,6.4
2018-09-29T20:41:06.005Z,6.4
2018-09-29T20:42:04.717Z,6.4
2018-09-29T20:43:04.020Z,6.4
2018-09-29T20:44:03.334Z,6.4
2018-09-29T20:45:01.846Z,6.4
2018-09-29T20:46:01.565Z,6.4
2018-09-29T20:47:00.275Z,6.4
2018-09-29T20:47:59.579Z,6.4
2018-09-29T20:48:58.846Z,6.4
2018-09-29T20:49:57.653Z,6.4
2018-09-29T20:50:57.087Z,6.4
2018-09-29T20:51:55.813Z,6.4
2018-09-29T20:52:55.021Z,6.4
2018-09-29T20:53:54.120Z,6.4
2018-09-29T20:54:53.435Z,6.4
2018-09-29T20:55:52.245Z,6.4
2018-09-29T20:56:51.671Z,6.4
2018-09-29T20:57:50.647Z,6.4
2018-09-29T20:58:49.857Z,6.4
2018-09-29T20:59:48.662Z,6.4
2018-09-29T21:00:47.872Z,6.4
2018-09-29T21:01:47.302Z,6.4
2018-09-29T21:02:46.117Z,6.4
2018-09-29T21:03:16.731Z,6.4
2018-09-29T21:03:47.256Z,6.4
2018-09-29T21:04:44.444Z,6.4
2018-09-29T21:05:43.650Z,6.4
2018-09-29T21:06:42.457Z,6.4
2018-09-29T21:07:41.876Z,6.4
2018-09-29T21:08:40.476Z,6.3
2018-09-29T21:09:39.461Z,6.4
2018-09-29T21:10:38.775Z,6.4
2018-09-29T21:11:38.196Z,6.3
2018-09-29T21:12:37.114Z,6.3
2018-09-29T21:13:36.891Z,6.3
2018-09-29T21:14:35.164Z,6.3
2018-09-29T21:15:34.375Z,6.3
2018-09-29T21:16:33.789Z,6.3
2018-09-29T21:17:32.583Z,6.3
2018-09-29T21:18:31.928Z,6.3
2018-09-29T21:19:02.341Z,6.3
2018-09-29T21:19:32.862Z,6.3
2018-09-29T21:20:30.061Z,6.3
2018-09-29T21:21:28.767Z,6.3
2018-09-29T21:22:28.091Z,6.3
2018-09-29T21:23:27.403Z,6.3
2018-09-29T21:24:25.997Z,6.3
2018-09-29T21:25:25.210Z,6.3
2018-09-29T21:26:24.524Z,6.3
2018-09-29T21:27:23.437Z,6.2
2018-09-29T21:27:53.344Z,6.2
2018-09-29T21:28:24.725Z,6.2
2018-09-29T21:28:54.427Z,6.2
2018-09-29T21:30:21.039Z,6.2
2018-09-29T21:31:19.875Z,6.2
2018-09-29T21:32:18.866Z,6.2
2018-09-29T21:33:17.961Z,6.2
2018-09-29T21:34:17.167Z,6.2
2018-09-29T21:35:16.374Z,6.2
2018-09-29T21:36:15.293Z,6.2
2018-09-29T21:37:14.499Z,6.2
2018-09-29T21:38:13.717Z,6.2
2018-09-29T21:39:12.436Z,6.2
2018-09-29T21:39:42.845Z,6.2
2018-09-29T21:41:10.849Z,6.2
2018-09-29T21:42:10.481Z,6.2
2018-09-29T21:43:08.795Z,6.2
2018-09-29T21:44:08.113Z,6.2
2018-09-29T21:45:07.211Z,6.2
2018-09-29T21:46:06.423Z,6.1
2018-09-29T21:47:05.237Z,6.1
2018-09-29T21:48:04.657Z,6.1
2018-09-29T21:49:03.255Z,6.1
2018-09-29T21:50:02.582Z,6.1
2018-09-29T21:51:01.793Z,6.1
2018-09-29T21:52:01.001Z,6.1
2018-09-29T21:52:59.813Z,6.1
2018-09-29T21:53:59.022Z,6.1
2018-09-29T21:54:58.279Z,6.1
2018-09-29T21:55:57.373Z,6.1
2018-09-29T21:56:56.182Z,6.1
2018-09-29T21:57:26.703Z,6.1
2018-09-29T21:57:57.026Z,6.1
2018-09-29T21:58:27.657Z,6.1
2018-09-29T21:58:57.777Z,6
2018-09-29T21:59:28.496Z,6
2018-09-29T22:00:52.669Z,6
2018-09-29T22:01:51.657Z,6
2018-09-29T22:02:50.756Z,6
2018-09-29T22:03:49.962Z,6
2018-09-29T22:04:49.172Z,6
2018-09-29T22:05:47.989Z,6
2018-09-29T22:06:47.301Z,6
2018-09-29T22:07:17.313Z,6
2018-09-29T22:07:47.833Z,6
2018-09-29T22:08:18.469Z,6
2018-09-29T22:08:48.881Z,6
2018-09-29T22:09:19.411Z,6
2018-09-29T22:09:50.040Z,6
2018-09-29T22:10:20.570Z,6
2018-09-29T22:10:51.191Z,6
2018-09-29T22:11:21.418Z,6
2018-09-29T22:12:41.862Z,5.9
2018-09-29T22:13:40.457Z,5.9
2018-09-29T22:14:39.879Z,5.9
2018-09-29T22:15:39.081Z,5.9
2018-09-29T22:16:37.990Z,5.9
2018-09-29T22:17:37.096Z,5.9
2018-09-29T22:18:36.409Z,5.9
2018-09-29T22:19:35.317Z,5.9
2018-09-29T22:20:05.439Z,5.9
2018-09-29T22:20:35.971Z,5.9
2018-09-29T22:21:07.243Z,5.9
2018-09-29T22:22:32.700Z,5.9
2018-09-29T22:23:31.613Z,5.9
2018-09-29T22:24:30.822Z,5.9
2018-09-29T22:25:30.133Z,5.8
2018-09-29T22:26:28.831Z,5.8
2018-09-29T22:27:28.034Z,5.8
2018-09-29T22:28:27.451Z,5.8
2018-09-29T22:29:26.085Z,5.8
2018-09-29T22:30:25.188Z,5.8
2018-09-29T22:31:24.611Z,5.8
2018-09-29T22:32:23.416Z,5.8
2018-09-29T22:33:22.626Z,5.8
2018-09-29T22:34:21.723Z,5.8
2018-09-29T22:35:20.595Z,5.8
2018-09-29T22:36:19.906Z,5.7
2018-09-29T22:37:19.123Z,5.7
2018-09-29T22:38:17.829Z,5.7
2018-09-29T22:38:48.564Z,5.7
2018-09-29T22:40:16.063Z,5.7
2018-09-29T22:41:15.280Z,5.7
2018-09-29T22:42:14.584Z,5.7
2018-09-29T22:43:13.392Z,5.7
2018-09-29T22:44:12.595Z,5.7
2018-09-29T22:45:11.299Z,5.7
2018-09-29T22:46:10.499Z,5.7
2018-09-29T22:47:09.817Z,5.7
2018-09-29T22:48:09.022Z,5.7
2018-09-29T22:48:39.548Z,5.7
2018-09-29T22:49:09.956Z,5.7
2018-09-29T22:49:40.688Z,5.7
2018-09-29T22:50:11.204Z,5.7
2018-09-29T22:50:41.936Z,5.7
2018-09-29T22:52:05.308Z,5.7
2018-09-29T22:53:04.159Z,5.7
2018-09-29T22:54:03.486Z,5.7
2018-09-29T22:55:02.196Z,5.7
2018-09-29T22:56:01.397Z,5.7
2018-09-29T22:57:00.402Z,5.7
2018-09-29T22:57:59.612Z,5.7
2018-09-29T22:58:58.822Z,5.7
2018-09-29T22:59:57.632Z,5.7
2018-09-29T23:00:28.261Z,5.7
2018-09-29T23:00:58.896Z,5.7
2018-09-29T23:01:29.636Z,5.7
2018-09-29T23:01:59.771Z,5.7
2018-09-29T23:02:55.067Z,5.7
2018-09-29T23:03:54.390Z,5.6
2018-09-29T23:04:53.089Z,5.6
2018-09-29T23:05:52.203Z,5.6
2018-09-29T23:06:51.636Z,5.6
2018-09-29T23:07:50.345Z,5.6
2018-09-29T23:08:49.764Z,5.6
2018-09-29T23:09:48.677Z,5.6
2018-09-29T23:10:47.986Z,5.6
2018-09-29T23:11:46.905Z,5.6
2018-09-29T23:12:45.818Z,5.6
2018-09-29T23:13:45.246Z,5.6
2018-09-29T23:14:43.939Z,5.6
2018-09-29T23:15:43.049Z,5.6
2018-09-29T23:16:42.355Z,5.7
2018-09-29T23:17:41.163Z,5.6
2018-09-29T23:18:40.482Z,5.6
2018-09-29T23:19:39.692Z,5.7
2018-09-29T23:20:38.505Z,5.7
2018-09-29T23:21:37.930Z,5.7
2018-09-29T23:22:36.856Z,5.6
2018-09-29T23:23:35.666Z,5.7
2018-09-29T23:24:34.877Z,5.6
2018-09-29T23:25:34.297Z,5.6
2018-09-29T23:26:33.006Z,5.6
2018-09-29T23:27:32.212Z,5.6
2018-09-29T23:28:31.306Z,5.6
2018-09-29T23:29:30.005Z,5.6
2018-09-29T23:30:29.099Z,5.6
2018-09-29T23:31:28.195Z,5.6
2018-09-29T23:32:27.401Z,5.6
2018-09-29T23:33:26.724Z,5.6
2018-09-29T23:34:25.535Z,5.6
2018-09-29T23:35:24.731Z,5.6
2018-09-29T23:36:24.145Z,5.6
2018-09-29T23:37:22.952Z,5.6
2018-09-29T23:38:22.271Z,5.6
2018-09-29T23:39:21.077Z,5.6
2018-09-29T23:40:20.389Z,5.6
2018-09-29T23:41:19.309Z,5.6
2018-09-29T23:42:18.729Z,5.6
2018-09-29T23:43:17.419Z,5.6
2018-09-29T23:44:16.842Z,5.6
2018-09-29T23:44:47.125Z,5.6
2018-09-29T23:45:17.034Z,5.6
2018-09-29T23:45:47.665Z,5.6
2018-09-29T23:46:17.893Z,5.6
2018-09-29T23:46:48.015Z,5.6
2018-09-29T23:48:12.985Z,5.6
2018-09-29T23:49:11.782Z,5.6
2018-09-29T23:50:11.088Z,5.5
2018-09-29T23:51:10.001Z,5.5
2018-09-29T23:52:09.320Z,5.5
2018-09-29T23:53:07.918Z,5.5
2018-09-29T23:54:07.228Z,5.5
2018-09-29T23:54:38.554Z,5.5
2018-09-29T23:55:07.763Z,5.5
2018-09-29T23:55:38.173Z,5.5
2018-09-29T23:56:08.805Z,5.5
2018-09-29T23:56:39.110Z,5.5
2018-09-29T23:58:03.599Z,5.5
2018-09-29T23:59:02.917Z,5.5
